sensor_id;sensor_type;location;lat;lon;timestamp;temperature;humidity
10468;DHT22;5281;48.878;9.394;2023-01-08T00:02:11;7.90;99.90
10468;DHT22;5281;48.878;9.394;2023-01-08T00:04:37;7.90;99.90
10468;DHT22;5281;48.878;9.394;2023-01-08T00:07:04;7.80;99.90
10468;DHT22;5281;48.878;9.394;2023-01-08T00:09:30;7.80;99.90
10468;DHT22;5281;48.878;9.394;2023-01-08T00:11:57;7.70;99.90
10468;DHT22;5281;48.878;9.394;2023-01-08T00:14:24;7.50;99.90
10468;DHT22;5281;48.878;9.394;2023-01-08T00:16:50;7.40;99.90
10468;DHT22;5281;48.878;9.394;2023-01-08T00:19:18;7.40;99.90
10468;DHT22;5281;48.878;9.394;2023-01-08T00:21:45;7.40;99.90
10468;DHT22;5281;48.878;9.394;2023-01-08T00:24:12;7.30;99.90
10468;DHT22;5281;48.878;9.394;2023-01-08T00:26:38;7.40;99.90
10468;DHT22;5281;48.878;9.394;2023-01-08T00:29:05;7.50;99.90
10468;DHT22;5281;48.878;9.394;2023-01-08T00:31:32;7.40;99.90
10468;DHT22;5281;48.878;9.394;2023-01-08T00:33:58;7.30;99.90
10468;DHT22;5281;48.878;9.394;2023-01-08T00:36:27;7.40;99.90
10468;DHT22;5281;48.878;9.394;2023-01-08T00:38:53;7.40;99.90
10468;DHT22;5281;48.878;9.394;2023-01-08T00:41:20;7.30;99.90
10468;DHT22;5281;48.878;9.394;2023-01-08T00:43:47;7.50;99.90
10468;DHT22;5281;48.878;9.394;2023-01-08T00:46:14;7.50;99.90
10468;DHT22;5281;48.878;9.394;2023-01-08T00:48:40;7.60;99.90
10468;DHT22;5281;48.878;9.394;2023-01-08T00:51:07;7.50;99.90
10468;DHT22;5281;48.878;9.394;2023-01-08T00:53:36;7.40;99.90
10468;DHT22;5281;48.878;9.394;2023-01-08T00:56:04;7.50;99.90
10468;DHT22;5281;48.878;9.394;2023-01-08T00:58:32;7.60;99.90
10468;DHT22;5281;48.878;9.394;2023-01-08T01:00:59;7.60;99.90
10468;DHT22;5281;48.878;9.394;2023-01-08T01:03:25;7.60;99.90
10468;DHT22;5281;48.878;9.394;2023-01-08T01:05:59;7.60;99.90
10468;DHT22;5281;48.878;9.394;2023-01-08T01:08:26;7.60;99.90
10468;DHT22;5281;48.878;9.394;2023-01-08T01:10:54;7.70;99.90
10468;DHT22;5281;48.878;9.394;2023-01-08T01:13:21;7.60;99.90
10468;DHT22;5281;48.878;9.394;2023-01-08T01:15:56;7.60;99.90
10468;DHT22;5281;48.878;9.394;2023-01-08T01:18:23;7.60;99.90
10468;DHT22;5281;48.878;9.394;2023-01-08T01:20:50;7.50;99.90
10468;DHT22;5281;48.878;9.394;2023-01-08T01:23:16;7.50;99.90
10468;DHT22;5281;48.878;9.394;2023-01-08T01:25:43;7.50;99.90
10468;DHT22;5281;48.878;9.394;2023-01-08T01:28:11;7.40;99.90
10468;DHT22;5281;48.878;9.394;2023-01-08T01:30:38;7.40;99.90
10468;DHT22;5281;48.878;9.394;2023-01-08T01:33:04;7.40;99.90
10468;DHT22;5281;48.878;9.394;2023-01-08T01:35:31;7.50;99.90
10468;DHT22;5281;48.878;9.394;2023-01-08T01:37:58;7.50;99.90
10468;DHT22;5281;48.878;9.394;2023-01-08T01:40:24;7.60;99.90
10468;DHT22;5281;48.878;9.394;2023-01-08T01:42:51;7.50;99.90
10468;DHT22;5281;48.878;9.394;2023-01-08T01:45:21;7.50;99.90
10468;DHT22;5281;48.878;9.394;2023-01-08T01:47:52;7.50;99.90
10468;DHT22;5281;48.878;9.394;2023-01-08T01:50:24;7.60;99.90
10468;DHT22;5281;48.878;9.394;2023-01-08T01:52:57;7.60;99.90
10468;DHT22;5281;48.878;9.394;2023-01-08T01:55:25;7.60;99.90
10468;DHT22;5281;48.878;9.394;2023-01-08T01:58:02;7.60;99.90
10468;DHT22;5281;48.878;9.394;2023-01-08T02:00:32;7.60;99.90
10468;DHT22;5281;48.878;9.394;2023-01-08T02:02:59;7.70;99.90
10468;DHT22;5281;48.878;9.394;2023-01-08T02:05:31;7.70;99.90
10468;DHT22;5281;48.878;9.394;2023-01-08T02:08:04;7.80;99.90
10468;DHT22;5281;48.878;9.394;2023-01-08T02:10:39;7.80;99.90
10468;DHT22;5281;48.878;9.394;2023-01-08T02:13:12;7.80;99.90
10468;DHT22;5281;48.878;9.394;2023-01-08T02:15:49;7.70;99.90
10468;DHT22;5281;48.878;9.394;2023-01-08T02:18:19;7.70;99.90
10468;DHT22;5281;48.878;9.394;2023-01-08T02:20:49;7.70;99.90
10468;DHT22;5281;48.878;9.394;2023-01-08T02:23:26;7.60;99.90
10468;DHT22;5281;48.878;9.394;2023-01-08T02:26:03;7.60;99.90
10468;DHT22;5281;48.878;9.394;2023-01-08T02:28:33;7.70;99.90
10468;DHT22;5281;48.878;9.394;2023-01-08T02:31:01;7.70;99.90
10468;DHT22;5281;48.878;9.394;2023-01-08T02:33:29;7.70;99.90
10468;DHT22;5281;48.878;9.394;2023-01-08T02:39:17;7.80;99.90
10468;DHT22;5281;48.878;9.394;2023-01-08T02:42:05;7.90;99.90
10468;DHT22;5281;48.878;9.394;2023-01-08T02:44:46;7.90;99.90
10468;DHT22;5281;48.878;9.394;2023-01-08T02:47:23;8.00;99.90
10468;DHT22;5281;48.878;9.394;2023-01-08T02:49:55;8.00;99.90
10468;DHT22;5281;48.878;9.394;2023-01-08T02:52:26;8.10;99.90
10468;DHT22;5281;48.878;9.394;2023-01-08T02:54:56;8.20;99.90
10468;DHT22;5281;48.878;9.394;2023-01-08T02:57:26;8.30;99.90
10468;DHT22;5281;48.878;9.394;2023-01-08T02:59:54;8.30;99.90
10468;DHT22;5281;48.878;9.394;2023-01-08T03:02:22;8.30;99.90
10468;DHT22;5281;48.878;9.394;2023-01-08T03:04:53;8.40;99.90
10468;DHT22;5281;48.878;9.394;2023-01-08T03:07:20;8.50;99.90
10468;DHT22;5281;48.878;9.394;2023-01-08T03:09:47;8.60;99.90
10468;DHT22;5281;48.878;9.394;2023-01-08T03:12:17;8.60;99.90
10468;DHT22;5281;48.878;9.394;2023-01-08T03:14:51;8.60;99.90
10468;DHT22;5281;48.878;9.394;2023-01-08T03:17:23;8.60;99.90
10468;DHT22;5281;48.878;9.394;2023-01-08T03:19:54;8.50;99.90
10468;DHT22;5281;48.878;9.394;2023-01-08T03:22:21;8.50;99.90
10468;DHT22;5281;48.878;9.394;2023-01-08T03:24:51;8.60;99.90
10468;DHT22;5281;48.878;9.394;2023-01-08T03:27:21;8.70;99.90
10468;DHT22;5281;48.878;9.394;2023-01-08T03:29:52;8.70;99.90
10468;DHT22;5281;48.878;9.394;2023-01-08T03:32:20;8.80;99.90
10468;DHT22;5281;48.878;9.394;2023-01-08T03:34:48;8.80;99.90
10468;DHT22;5281;48.878;9.394;2023-01-08T03:37:19;8.80;99.90
10468;DHT22;5281;48.878;9.394;2023-01-08T03:39:52;8.70;99.90
10468;DHT22;5281;48.878;9.394;2023-01-08T03:42:21;8.70;99.90
10468;DHT22;5281;48.878;9.394;2023-01-08T03:44:48;8.70;99.90
10468;DHT22;5281;48.878;9.394;2023-01-08T03:47:18;8.60;99.90
10468;DHT22;5281;48.878;9.394;2023-01-08T03:49:48;8.70;99.90
10468;DHT22;5281;48.878;9.394;2023-01-08T03:52:22;8.80;99.90
10468;DHT22;5281;48.878;9.394;2023-01-08T03:54:49;8.80;99.90
10468;DHT22;5281;48.878;9.394;2023-01-08T03:57:16;8.80;99.90
10468;DHT22;5281;48.878;9.394;2023-01-08T03:59:43;8.80;99.90
10468;DHT22;5281;48.878;9.394;2023-01-08T04:02:09;8.80;99.90
10468;DHT22;5281;48.878;9.394;2023-01-08T04:04:38;8.90;99.90
10468;DHT22;5281;48.878;9.394;2023-01-08T04:07:04;8.90;99.90
10468;DHT22;5281;48.878;9.394;2023-01-08T04:09:31;8.90;99.90
10468;DHT22;5281;48.878;9.394;2023-01-08T04:11:58;8.90;99.90
10468;DHT22;5281;48.878;9.394;2023-01-08T04:14:24;8.90;99.90
10468;DHT22;5281;48.878;9.394;2023-01-08T04:16:51;9.00;99.90
10468;DHT22;5281;48.878;9.394;2023-01-08T04:19:18;9.00;99.90
10468;DHT22;5281;48.878;9.394;2023-01-08T04:21:48;9.00;99.90
10468;DHT22;5281;48.878;9.394;2023-01-08T04:24:15;8.90;99.90
10468;DHT22;5281;48.878;9.394;2023-01-08T04:26:42;8.90;99.90
10468;DHT22;5281;48.878;9.394;2023-01-08T04:29:10;9.00;99.90
10468;DHT22;5281;48.878;9.394;2023-01-08T04:31:36;9.00;99.90
10468;DHT22;5281;48.878;9.394;2023-01-08T04:34:03;9.00;99.90
10468;DHT22;5281;48.878;9.394;2023-01-08T04:36:30;9.10;99.90
10468;DHT22;5281;48.878;9.394;2023-01-08T04:38:58;9.10;99.90
10468;DHT22;5281;48.878;9.394;2023-01-08T04:41:25;9.20;99.90
10468;DHT22;5281;48.878;9.394;2023-01-08T04:43:51;9.20;99.90
10468;DHT22;5281;48.878;9.394;2023-01-08T04:46:18;9.30;99.90
10468;DHT22;5281;48.878;9.394;2023-01-08T04:48:45;9.40;99.90
10468;DHT22;5281;48.878;9.394;2023-01-08T04:51:11;9.30;99.90
10468;DHT22;5281;48.878;9.394;2023-01-08T04:53:38;9.30;99.90
10468;DHT22;5281;48.878;9.394;2023-01-08T04:56:09;9.50;99.90
10468;DHT22;5281;48.878;9.394;2023-01-08T04:58:37;9.50;99.90
10468;DHT22;5281;48.878;9.394;2023-01-08T05:01:09;9.70;99.90
10468;DHT22;5281;48.878;9.394;2023-01-08T05:03:36;9.80;99.90
10468;DHT22;5281;48.878;9.394;2023-01-08T05:06:04;9.80;99.90
10468;DHT22;5281;48.878;9.394;2023-01-08T05:08:30;9.80;99.90
10468;DHT22;5281;48.878;9.394;2023-01-08T05:10:57;9.80;99.90
10468;DHT22;5281;48.878;9.394;2023-01-08T05:13:25;9.90;99.90
10468;DHT22;5281;48.878;9.394;2023-01-08T05:15:53;9.90;99.90
10468;DHT22;5281;48.878;9.394;2023-01-08T05:18:20;10.00;99.90
10468;DHT22;5281;48.878;9.394;2023-01-08T05:20:47;10.00;99.90
10468;DHT22;5281;48.878;9.394;2023-01-08T05:23:14;10.10;99.90
10468;DHT22;5281;48.878;9.394;2023-01-08T05:25:41;10.20;99.90
10468;DHT22;5281;48.878;9.394;2023-01-08T05:28:07;10.30;99.90
10468;DHT22;5281;48.878;9.394;2023-01-08T05:30:36;10.30;99.90
10468;DHT22;5281;48.878;9.394;2023-01-08T05:33:03;10.40;99.90
10468;DHT22;5281;48.878;9.394;2023-01-08T05:35:30;10.40;99.90
10468;DHT22;5281;48.878;9.394;2023-01-08T05:37:58;10.40;99.90
10468;DHT22;5281;48.878;9.394;2023-01-08T05:40:25;10.60;99.90
10468;DHT22;5281;48.878;9.394;2023-01-08T05:42:51;10.60;99.90
10468;DHT22;5281;48.878;9.394;2023-01-08T05:45:18;10.80;99.90
10468;DHT22;5281;48.878;9.394;2023-01-08T05:47:46;10.80;99.90
10468;DHT22;5281;48.878;9.394;2023-01-08T05:50:13;10.90;99.90
10468;DHT22;5281;48.878;9.394;2023-01-08T05:52:39;11.10;99.90
10468;DHT22;5281;48.878;9.394;2023-01-08T05:55:07;11.20;99.90
10468;DHT22;5281;48.878;9.394;2023-01-08T05:57:34;11.30;99.90
10468;DHT22;5281;48.878;9.394;2023-01-08T06:00:00;11.40;99.90
10468;DHT22;5281;48.878;9.394;2023-01-08T06:02:27;11.40;99.90
10468;DHT22;5281;48.878;9.394;2023-01-08T06:04:55;11.50;99.90
10468;DHT22;5281;48.878;9.394;2023-01-08T06:07:22;11.50;99.90
10468;DHT22;5281;48.878;9.394;2023-01-08T06:09:48;11.50;99.90
10468;DHT22;5281;48.878;9.394;2023-01-08T06:12:15;11.60;99.90
10468;DHT22;5281;48.878;9.394;2023-01-08T06:14:42;11.60;99.90
10468;DHT22;5281;48.878;9.394;2023-01-08T06:17:08;11.60;99.90
10468;DHT22;5281;48.878;9.394;2023-01-08T06:19:35;11.70;99.90
10468;DHT22;5281;48.878;9.394;2023-01-08T06:22:05;11.60;99.90
10468;DHT22;5281;48.878;9.394;2023-01-08T06:24:31;11.60;99.90
10468;DHT22;5281;48.878;9.394;2023-01-08T06:26:58;11.50;99.90
10468;DHT22;5281;48.878;9.394;2023-01-08T06:29:25;11.50;99.90
10468;DHT22;5281;48.878;9.394;2023-01-08T06:31:51;11.40;99.90
10468;DHT22;5281;48.878;9.394;2023-01-08T06:34:18;11.40;99.90
10468;DHT22;5281;48.878;9.394;2023-01-08T06:36:45;11.30;99.90
10468;DHT22;5281;48.878;9.394;2023-01-08T06:39:13;11.30;99.90
10468;DHT22;5281;48.878;9.394;2023-01-08T06:41:39;11.40;99.90
10468;DHT22;5281;48.878;9.394;2023-01-08T06:44:06;11.50;99.90
10468;DHT22;5281;48.878;9.394;2023-01-08T06:46:33;11.50;99.90
10468;DHT22;5281;48.878;9.394;2023-01-08T06:49:02;11.50;99.90
10468;DHT22;5281;48.878;9.394;2023-01-08T06:51:29;11.60;99.90
10468;DHT22;5281;48.878;9.394;2023-01-08T06:53:55;11.60;99.90
10468;DHT22;5281;48.878;9.394;2023-01-08T06:56:24;11.70;99.90
10468;DHT22;5281;48.878;9.394;2023-01-08T06:58:50;11.50;99.90
10468;DHT22;5281;48.878;9.394;2023-01-08T07:01:17;11.60;99.90
10468;DHT22;5281;48.878;9.394;2023-01-08T07:03:45;11.60;99.90
10468;DHT22;5281;48.878;9.394;2023-01-08T07:06:13;11.60;99.90
10468;DHT22;5281;48.878;9.394;2023-01-08T07:08:40;11.70;99.90
10468;DHT22;5281;48.878;9.394;2023-01-08T07:11:07;11.70;99.90
10468;DHT22;5281;48.878;9.394;2023-01-08T07:13:35;11.70;99.90
10468;DHT22;5281;48.878;9.394;2023-01-08T07:16:05;11.60;99.90
10468;DHT22;5281;48.878;9.394;2023-01-08T07:18:33;11.60;99.90
10468;DHT22;5281;48.878;9.394;2023-01-08T07:21:00;11.70;99.90
10468;DHT22;5281;48.878;9.394;2023-01-08T07:23:27;11.60;99.90
10468;DHT22;5281;48.878;9.394;2023-01-08T07:25:54;11.50;99.90
10468;DHT22;5281;48.878;9.394;2023-01-08T07:28:21;11.50;99.90
10468;DHT22;5281;48.878;9.394;2023-01-08T07:30:49;11.50;99.90
10468;DHT22;5281;48.878;9.394;2023-01-08T07:33:15;11.50;99.90
10468;DHT22;5281;48.878;9.394;2023-01-08T07:35:42;11.50;99.90
10468;DHT22;5281;48.878;9.394;2023-01-08T07:38:09;11.50;99.90
10468;DHT22;5281;48.878;9.394;2023-01-08T07:40:35;11.50;99.90
10468;DHT22;5281;48.878;9.394;2023-01-08T07:43:03;11.60;99.90
10468;DHT22;5281;48.878;9.394;2023-01-08T07:45:31;11.50;99.90
10468;DHT22;5281;48.878;9.394;2023-01-08T07:47:59;11.50;99.90
10468;DHT22;5281;48.878;9.394;2023-01-08T07:50:26;11.50;99.90
10468;DHT22;5281;48.878;9.394;2023-01-08T07:52:56;11.50;99.90
10468;DHT22;5281;48.878;9.394;2023-01-08T07:55:23;11.40;99.90
10468;DHT22;5281;48.878;9.394;2023-01-08T07:57:49;11.50;99.90
10468;DHT22;5281;48.878;9.394;2023-01-08T08:00:16;11.40;99.90
10468;DHT22;5281;48.878;9.394;2023-01-08T08:02:43;11.30;99.90
10468;DHT22;5281;48.878;9.394;2023-01-08T08:05:11;11.30;99.90
10468;DHT22;5281;48.878;9.394;2023-01-08T08:07:38;11.30;99.90
10468;DHT22;5281;48.878;9.394;2023-01-08T08:10:06;11.30;99.90
10468;DHT22;5281;48.878;9.394;2023-01-08T08:12:33;11.30;99.90
10468;DHT22;5281;48.878;9.394;2023-01-08T08:15:00;11.20;99.90
10468;DHT22;5281;48.878;9.394;2023-01-08T08:17:26;11.20;99.90
10468;DHT22;5281;48.878;9.394;2023-01-08T08:19:53;11.20;99.90
10468;DHT22;5281;48.878;9.394;2023-01-08T08:22:22;11.20;99.90
10468;DHT22;5281;48.878;9.394;2023-01-08T08:24:48;11.20;99.90
10468;DHT22;5281;48.878;9.394;2023-01-08T08:27:15;11.20;99.90
10468;DHT22;5281;48.878;9.394;2023-01-08T08:29:42;11.20;99.90
10468;DHT22;5281;48.878;9.394;2023-01-08T08:32:08;11.20;99.90
10468;DHT22;5281;48.878;9.394;2023-01-08T08:34:35;11.20;99.90
10468;DHT22;5281;48.878;9.394;2023-01-08T08:37:02;11.20;99.90
10468;DHT22;5281;48.878;9.394;2023-01-08T08:39:30;11.30;99.90
10468;DHT22;5281;48.878;9.394;2023-01-08T08:41:57;11.20;99.90
10468;DHT22;5281;48.878;9.394;2023-01-08T08:44:24;11.20;99.90
10468;DHT22;5281;48.878;9.394;2023-01-08T08:46:50;11.30;99.90
10468;DHT22;5281;48.878;9.394;2023-01-08T08:49:17;11.40;99.90
10468;DHT22;5281;48.878;9.394;2023-01-08T08:51:44;11.50;99.90
10468;DHT22;5281;48.878;9.394;2023-01-08T08:54:11;11.50;99.90
10468;DHT22;5281;48.878;9.394;2023-01-08T08:56:39;11.40;99.90
10468;DHT22;5281;48.878;9.394;2023-01-08T08:59:08;11.50;99.90
10468;DHT22;5281;48.878;9.394;2023-01-08T09:01:37;11.40;99.90
10468;DHT22;5281;48.878;9.394;2023-01-08T09:04:04;11.40;99.90
10468;DHT22;5281;48.878;9.394;2023-01-08T09:06:30;11.40;99.90
10468;DHT22;5281;48.878;9.394;2023-01-08T09:08:57;11.40;99.90
10468;DHT22;5281;48.878;9.394;2023-01-08T09:11:24;11.30;99.90
10468;DHT22;5281;48.878;9.394;2023-01-08T09:13:52;11.40;99.90
10468;DHT22;5281;48.878;9.394;2023-01-08T09:16:18;11.50;99.90
10468;DHT22;5281;48.878;9.394;2023-01-08T09:18:45;11.50;99.90
10468;DHT22;5281;48.878;9.394;2023-01-08T09:21:13;11.50;99.90
10468;DHT22;5281;48.878;9.394;2023-01-08T09:23:40;11.40;99.90
10468;DHT22;5281;48.878;9.394;2023-01-08T09:26:08;11.50;99.90
10468;DHT22;5281;48.878;9.394;2023-01-08T09:28:34;11.50;99.90
10468;DHT22;5281;48.878;9.394;2023-01-08T09:31:04;11.50;99.90
10468;DHT22;5281;48.878;9.394;2023-01-08T09:33:31;11.60;99.90
10468;DHT22;5281;48.878;9.394;2023-01-08T09:35:57;11.70;99.90
10468;DHT22;5281;48.878;9.394;2023-01-08T09:38:24;11.70;99.90
10468;DHT22;5281;48.878;9.394;2023-01-08T09:40:55;11.70;99.90
10468;DHT22;5281;48.878;9.394;2023-01-08T09:43:25;11.70;99.90
10468;DHT22;5281;48.878;9.394;2023-01-08T09:45:55;11.70;99.90
10468;DHT22;5281;48.878;9.394;2023-01-08T09:48:27;11.90;99.90
10468;DHT22;5281;48.878;9.394;2023-01-08T09:50:55;12.10;99.90
10468;DHT22;5281;48.878;9.394;2023-01-08T09:53:22;12.30;99.90
10468;DHT22;5281;48.878;9.394;2023-01-08T09:55:54;12.60;99.90
10468;DHT22;5281;48.878;9.394;2023-01-08T09:58:27;12.70;99.90
10468;DHT22;5281;48.878;9.394;2023-01-08T10:00:56;12.80;99.90
10468;DHT22;5281;48.878;9.394;2023-01-08T10:03:29;13.00;99.90
10468;DHT22;5281;48.878;9.394;2023-01-08T10:05:56;12.90;99.90
10468;DHT22;5281;48.878;9.394;2023-01-08T10:08:23;12.90;99.90
10468;DHT22;5281;48.878;9.394;2023-01-08T10:10:50;12.90;99.90
10468;DHT22;5281;48.878;9.394;2023-01-08T10:13:17;12.90;99.90
10468;DHT22;5281;48.878;9.394;2023-01-08T10:15:44;12.80;99.90
10468;DHT22;5281;48.878;9.394;2023-01-08T10:18:12;13.00;99.90
10468;DHT22;5281;48.878;9.394;2023-01-08T10:20:42;12.80;99.90
10468;DHT22;5281;48.878;9.394;2023-01-08T10:23:11;12.60;99.90
10468;DHT22;5281;48.878;9.394;2023-01-08T10:25:50;12.60;99.90
10468;DHT22;5281;48.878;9.394;2023-01-08T10:28:19;12.70;99.90
10468;DHT22;5281;48.878;9.394;2023-01-08T10:30:46;12.90;99.90
10468;DHT22;5281;48.878;9.394;2023-01-08T10:33:18;13.00;99.90
10468;DHT22;5281;48.878;9.394;2023-01-08T10:35:53;13.10;99.90
10468;DHT22;5281;48.878;9.394;2023-01-08T10:38:28;13.10;99.90
10468;DHT22;5281;48.878;9.394;2023-01-08T10:40:56;13.00;99.90
10468;DHT22;5281;48.878;9.394;2023-01-08T10:43:26;12.90;99.90
10468;DHT22;5281;48.878;9.394;2023-01-08T10:45:57;12.90;99.90
10468;DHT22;5281;48.878;9.394;2023-01-08T10:48:30;12.80;99.90
10468;DHT22;5281;48.878;9.394;2023-01-08T10:51:11;12.70;99.90
10468;DHT22;5281;48.878;9.394;2023-01-08T10:53:39;12.70;99.90
10468;DHT22;5281;48.878;9.394;2023-01-08T10:56:14;12.80;99.90
10468;DHT22;5281;48.878;9.394;2023-01-08T10:58:43;12.80;99.90
10468;DHT22;5281;48.878;9.394;2023-01-08T11:01:14;12.80;99.90
10468;DHT22;5281;48.878;9.394;2023-01-08T11:03:42;12.90;99.90
10468;DHT22;5281;48.878;9.394;2023-01-08T11:06:11;12.70;99.90
10468;DHT22;5281;48.878;9.394;2023-01-08T11:08:39;12.70;99.90
10468;DHT22;5281;48.878;9.394;2023-01-08T11:11:14;12.70;99.90
10468;DHT22;5281;48.878;9.394;2023-01-08T11:13:53;12.60;99.90
10468;DHT22;5281;48.878;9.394;2023-01-08T11:16:21;12.60;99.90
10468;DHT22;5281;48.878;9.394;2023-01-08T11:18:49;12.60;99.90
10468;DHT22;5281;48.878;9.394;2023-01-08T11:21:21;12.70;99.90
10468;DHT22;5281;48.878;9.394;2023-01-08T11:24:00;12.90;99.90
10468;DHT22;5281;48.878;9.394;2023-01-08T11:26:28;12.90;99.90
10468;DHT22;5281;48.878;9.394;2023-01-08T11:28:59;13.00;99.90
10468;DHT22;5281;48.878;9.394;2023-01-08T11:31:33;13.10;99.90
10468;DHT22;5281;48.878;9.394;2023-01-08T11:34:06;13.20;99.90
10468;DHT22;5281;48.878;9.394;2023-01-08T11:36:45;13.20;99.90
10468;DHT22;5281;48.878;9.394;2023-01-08T11:39:13;13.30;99.90
10468;DHT22;5281;48.878;9.394;2023-01-08T11:45:02;13.50;99.90
10468;DHT22;5281;48.878;9.394;2023-01-08T11:47:50;13.50;99.90
10468;DHT22;5281;48.878;9.394;2023-01-08T11:50:25;13.50;99.90
10468;DHT22;5281;48.878;9.394;2023-01-08T11:53:08;13.60;99.90
10468;DHT22;5281;48.878;9.394;2023-01-08T11:55:54;13.70;99.90
10468;DHT22;5281;48.878;9.394;2023-01-08T11:58:32;13.90;99.90
10468;DHT22;5281;48.878;9.394;2023-01-08T12:01:27;14.00;99.90
10468;DHT22;5281;48.878;9.394;2023-01-08T12:04:18;14.10;99.90
10468;DHT22;5281;48.878;9.394;2023-01-08T12:06:53;14.30;99.90
10468;DHT22;5281;48.878;9.394;2023-01-08T12:09:32;14.40;99.90
10468;DHT22;5281;48.878;9.394;2023-01-08T12:12:05;14.40;99.90
10468;DHT22;5281;48.878;9.394;2023-01-08T12:14:43;14.50;99.90
10468;DHT22;5281;48.878;9.394;2023-01-08T12:20:25;14.30;99.90
10468;DHT22;5281;48.878;9.394;2023-01-08T12:23:01;14.20;99.90
10468;DHT22;5281;48.878;9.394;2023-01-08T12:25:51;14.10;99.90
10468;DHT22;5281;48.878;9.394;2023-01-08T12:28:36;14.00;99.90
10468;DHT22;5281;48.878;9.394;2023-01-08T12:31:22;13.70;99.90
10468;DHT22;5281;48.878;9.394;2023-01-08T12:33:57;13.70;99.90
10468;DHT22;5281;48.878;9.394;2023-01-08T12:36:29;13.60;99.90
10468;DHT22;5281;48.878;9.394;2023-01-08T12:39:02;13.50;99.90
10468;DHT22;5281;48.878;9.394;2023-01-08T12:41:34;13.50;99.90
10468;DHT22;5281;48.878;9.394;2023-01-08T12:44:03;13.40;99.90
10468;DHT22;5281;48.878;9.394;2023-01-08T12:46:32;13.40;99.90
10468;DHT22;5281;48.878;9.394;2023-01-08T12:49:00;13.40;99.90
10468;DHT22;5281;48.878;9.394;2023-01-08T12:51:30;13.40;99.90
10468;DHT22;5281;48.878;9.394;2023-01-08T12:54:07;13.40;99.90
10468;DHT22;5281;48.878;9.394;2023-01-08T12:56:42;13.40;99.90
10468;DHT22;5281;48.878;9.394;2023-01-08T12:59:20;13.40;99.90
10468;DHT22;5281;48.878;9.394;2023-01-08T13:01:54;13.40;99.90
10468;DHT22;5281;48.878;9.394;2023-01-08T13:04:23;13.40;99.90
10468;DHT22;5281;48.878;9.394;2023-01-08T13:06:51;13.40;99.90
10468;DHT22;5281;48.878;9.394;2023-01-08T13:09:22;13.50;99.90
10468;DHT22;5281;48.878;9.394;2023-01-08T13:11:53;13.40;99.90
10468;DHT22;5281;48.878;9.394;2023-01-08T13:14:20;13.40;99.90
10468;DHT22;5281;48.878;9.394;2023-01-08T13:17:00;13.30;99.90
10468;DHT22;5281;48.878;9.394;2023-01-08T13:19:30;13.40;99.90
10468;DHT22;5281;48.878;9.394;2023-01-08T13:22:00;13.50;99.90
10468;DHT22;5281;48.878;9.394;2023-01-08T13:24:32;13.60;99.90
10468;DHT22;5281;48.878;9.394;2023-01-08T13:27:20;13.70;99.90
10468;DHT22;5281;48.878;9.394;2023-01-08T13:29:49;13.70;99.90
10468;DHT22;5281;48.878;9.394;2023-01-08T13:32:24;13.70;99.90
10468;DHT22;5281;48.878;9.394;2023-01-08T13:35:18;13.70;99.90
10468;DHT22;5281;48.878;9.394;2023-01-08T13:37:47;13.70;99.90
10468;DHT22;5281;48.878;9.394;2023-01-08T13:43:21;13.70;99.90
10468;DHT22;5281;48.878;9.394;2023-01-08T13:46:03;13.60;99.90
10468;DHT22;5281;48.878;9.394;2023-01-08T13:48:35;13.60;99.90
10468;DHT22;5281;48.878;9.394;2023-01-08T13:51:04;13.60;99.90
10468;DHT22;5281;48.878;9.394;2023-01-08T13:53:31;13.60;99.90
10468;DHT22;5281;48.878;9.394;2023-01-08T13:56:01;13.60;99.90
10468;DHT22;5281;48.878;9.394;2023-01-08T13:58:34;13.70;99.90
10468;DHT22;5281;48.878;9.394;2023-01-08T14:01:02;13.70;99.90
10468;DHT22;5281;48.878;9.394;2023-01-08T14:03:32;13.70;99.90
10468;DHT22;5281;48.878;9.394;2023-01-08T14:06:09;13.80;99.90
10468;DHT22;5281;48.878;9.394;2023-01-08T14:08:48;13.90;99.90
10468;DHT22;5281;48.878;9.394;2023-01-08T14:11:15;14.00;99.90
10468;DHT22;5281;48.878;9.394;2023-01-08T14:13:44;14.10;99.90
10468;DHT22;5281;48.878;9.394;2023-01-08T14:16:14;14.10;99.90
10468;DHT22;5281;48.878;9.394;2023-01-08T14:18:42;14.10;99.90
10468;DHT22;5281;48.878;9.394;2023-01-08T14:21:09;14.00;99.90
10468;DHT22;5281;48.878;9.394;2023-01-08T14:23:39;14.10;99.90
10468;DHT22;5281;48.878;9.394;2023-01-08T14:26:13;14.20;99.90
10468;DHT22;5281;48.878;9.394;2023-01-08T14:28:51;14.40;99.90
10468;DHT22;5281;48.878;9.394;2023-01-08T14:31:20;14.70;99.90
10468;DHT22;5281;48.878;9.394;2023-01-08T14:33:48;14.90;99.90
10468;DHT22;5281;48.878;9.394;2023-01-08T14:36:16;14.90;99.90
10468;DHT22;5281;48.878;9.394;2023-01-08T14:38:43;14.80;99.90
10468;DHT22;5281;48.878;9.394;2023-01-08T14:41:24;14.70;99.90
10468;DHT22;5281;48.878;9.394;2023-01-08T14:44:15;14.50;99.90
10468;DHT22;5281;48.878;9.394;2023-01-08T14:46:42;14.30;99.90
10468;DHT22;5281;48.878;9.394;2023-01-08T14:49:19;14.20;99.90
10468;DHT22;5281;48.878;9.394;2023-01-08T14:51:47;14.00;99.90
10468;DHT22;5281;48.878;9.394;2023-01-08T14:54:18;13.90;99.90
10468;DHT22;5281;48.878;9.394;2023-01-08T14:56:47;13.80;99.90
10468;DHT22;5281;48.878;9.394;2023-01-08T14:59:19;13.80;99.90
10468;DHT22;5281;48.878;9.394;2023-01-08T15:01:50;13.80;99.90
10468;DHT22;5281;48.878;9.394;2023-01-08T15:04:19;13.80;99.90
10468;DHT22;5281;48.878;9.394;2023-01-08T15:06:46;13.80;99.90
10468;DHT22;5281;48.878;9.394;2023-01-08T15:09:20;13.80;99.90
10468;DHT22;5281;48.878;9.394;2023-01-08T15:11:51;13.80;99.90
10468;DHT22;5281;48.878;9.394;2023-01-08T15:14:22;13.70;99.90
10468;DHT22;5281;48.878;9.394;2023-01-08T15:16:51;13.70;99.90
10468;DHT22;5281;48.878;9.394;2023-01-08T15:19:22;13.70;99.90
10468;DHT22;5281;48.878;9.394;2023-01-08T15:21:52;13.60;99.90
10468;DHT22;5281;48.878;9.394;2023-01-08T15:24:22;13.70;99.90
10468;DHT22;5281;48.878;9.394;2023-01-08T15:26:50;13.70;99.90
10468;DHT22;5281;48.878;9.394;2023-01-08T15:29:21;13.60;99.90
10468;DHT22;5281;48.878;9.394;2023-01-08T15:31:50;13.60;99.90
10468;DHT22;5281;48.878;9.394;2023-01-08T15:34:18;13.50;99.90
10468;DHT22;5281;48.878;9.394;2023-01-08T15:36:45;13.40;99.90
10468;DHT22;5281;48.878;9.394;2023-01-08T15:39:12;13.40;99.90
10468;DHT22;5281;48.878;9.394;2023-01-08T15:41:39;13.40;99.90
10468;DHT22;5281;48.878;9.394;2023-01-08T15:44:23;13.30;99.90
10468;DHT22;5281;48.878;9.394;2023-01-08T15:46:52;13.30;99.90
10468;DHT22;5281;48.878;9.394;2023-01-08T15:49:19;13.10;99.90
10468;DHT22;5281;48.878;9.394;2023-01-08T15:51:47;13.00;99.90
10468;DHT22;5281;48.878;9.394;2023-01-08T15:54:15;12.80;99.90
10468;DHT22;5281;48.878;9.394;2023-01-08T15:56:42;12.60;99.90
10468;DHT22;5281;48.878;9.394;2023-01-08T15:59:08;12.50;99.90
10468;DHT22;5281;48.878;9.394;2023-01-08T16:01:35;12.50;99.90
10468;DHT22;5281;48.878;9.394;2023-01-08T16:04:04;12.40;99.90
10468;DHT22;5281;48.878;9.394;2023-01-08T16:06:30;12.30;99.90
10468;DHT22;5281;48.878;9.394;2023-01-08T16:08:57;12.40;99.90
10468;DHT22;5281;48.878;9.394;2023-01-08T16:11:26;12.40;99.90
10468;DHT22;5281;48.878;9.394;2023-01-08T16:13:53;12.50;99.90
10468;DHT22;5281;48.878;9.394;2023-01-08T16:16:20;12.60;99.90
10468;DHT22;5281;48.878;9.394;2023-01-08T16:18:46;12.60;99.90
10468;DHT22;5281;48.878;9.394;2023-01-08T16:21:15;12.70;99.90